Time;durP1;ratioP1;P1;durP2;ratioP2;P2;SDS_P1;SDS_P2;PMS_P1;PMS_P2;Temp;Humidity;BMP_temperature;BMP_pressure;BME280_temperature;BME280_humidity;BME280_pressure;Samples;Min_cycle;Max_cycle;Signal;HPM_P1;HPM_P2
2024/01/29 00:00:32;;;;;;;22.10;14.50;;;;;;;5.34;65.98;101022.94;232037;197;138336;-63
2024/01/29 00:05:57;;;;;;;20.10;12.90;;;;;;;5.28;65.86;101014.70;232091;202;155680;-63
2024/01/29 00:11:01;;;;;;;20.50;13.10;;;;;;;5.19;66.03;101005.64;231704;198;138077;-61
2024/01/29 00:16:05;;;;;;;22.90;13.80;;;;;;;5.09;66.04;101012.05;231926;200;138415;-62
2024/01/29 00:21:08;;;;;;;28.30;15.20;;;;;;;4.95;66.28;101012.32;231860;202;154180;-61
2024/01/29 00:26:11;;;;;;;25.20;15.30;;;;;;;4.86;66.36;101012.05;231882;198;138799;-61
2024/01/29 00:31:16;;;;;;;23.50;15.00;;;;;;;4.79;66.69;101015.60;231964;204;139304;-62
2024/01/29 00:36:19;;;;;;;23.00;14.30;;;;;;;4.70;66.67;101027.96;232146;204;153239;-62
2024/01/29 00:41:23;;;;;;;23.40;14.10;;;;;;;4.63;66.76;101037.67;231916;204;138858;-62
2024/01/29 00:46:27;;;;;;;21.40;14.30;;;;;;;4.55;66.89;101049.15;231690;204;138385;-62
2024/01/29 00:51:30;;;;;;;21.00;14.60;;;;;;;4.45;67.12;101060.96;231676;198;153237;-63
2024/01/29 00:56:33;;;;;;;23.00;14.30;;;;;;;4.41;67.55;101073.98;231603;198;139453;-62
2024/01/29 01:01:36;;;;;;;22.80;15.10;;;;;;;4.44;67.74;101075.38;232102;198;139177;-62
2024/01/29 01:06:40;;;;;;;22.60;14.80;;;;;;;4.49;67.75;101072.02;232142;198;153117;-61
2024/01/29 01:11:43;;;;;;;22.10;14.20;;;;;;;4.49;67.37;101074.84;231804;202;138454;-62
2024/01/29 01:16:46;;;;;;;23.00;14.00;;;;;;;4.41;67.47;101065.55;231814;198;142006;-63
2024/01/29 01:21:49;;;;;;;19.20;12.60;;;;;;;4.37;67.54;101059.42;231967;204;153255;-62
2024/01/29 01:26:53;;;;;;;22.40;14.80;;;;;;;4.32;67.63;101056.98;232009;204;137740;-62
2024/01/29 01:31:56;;;;;;;19.40;13.20;;;;;;;4.30;67.80;101051.55;232034;200;138325;-61
2024/01/29 01:36:59;;;;;;;21.00;12.90;;;;;;;4.25;67.88;101057.01;232050;197;152989;-62
2024/01/29 01:42:04;;;;;;;19.20;13.30;;;;;;;4.23;68.05;101053.67;231977;201;138704;-63
2024/01/29 01:47:07;;;;;;;21.40;13.20;;;;;;;4.17;68.05;101058.27;231956;202;137501;-62
2024/01/29 01:52:11;;;;;;;21.60;14.50;;;;;;;4.09;68.07;101049.34;231977;197;153868;-63
2024/01/29 01:57:15;;;;;;;22.30;14.50;;;;;;;3.99;68.15;101047.27;231852;197;138113;-62
2024/01/29 02:02:18;;;;;;;20.30;13.80;;;;;;;3.94;68.32;101051.30;232023;198;142312;-63
2024/01/29 02:07:22;;;;;;;20.50;14.70;;;;;;;3.89;68.44;101045.00;232025;197;153846;-63
2024/01/29 02:12:25;;;;;;;22.50;14.20;;;;;;;3.78;68.39;101045.20;232115;198;138284;-62
2024/01/29 02:17:29;;;;;;;23.20;14.80;;;;;;;3.67;68.67;101043.27;231980;204;138016;-63
2024/01/29 02:22:32;;;;;;;21.00;14.60;;;;;;;3.61;68.86;101043.30;231929;197;154336;-62
2024/01/29 02:27:36;;;;;;;23.80;15.10;;;;;;;3.55;68.98;101045.23;231858;204;138098;-61
2024/01/29 02:32:39;;;;;;;23.40;15.00;;;;;;;3.51;68.81;101039.10;231753;198;137881;-61
2024/01/29 02:37:43;;;;;;;20.00;13.50;;;;;;;3.50;69.06;101036.81;231877;198;153198;-61
2024/01/29 02:42:46;;;;;;;22.40;14.10;;;;;;;3.53;68.86;101039.27;232006;201;140301;-61
2024/01/29 02:47:49;;;;;;;20.20;13.20;;;;;;;3.52;68.93;101041.73;231923;198;137976;-63
2024/01/29 02:52:52;;;;;;;20.80;13.00;;;;;;;3.51;68.88;101036.99;231982;204;154542;-61
2024/01/29 02:57:55;;;;;;;20.10;13.90;;;;;;;3.48;68.95;101037.70;231926;198;139202;-62
2024/01/29 03:02:59;;;;;;;18.30;13.00;;;;;;;3.44;68.78;101035.77;231809;204;138649;-63
2024/01/29 03:08:03;;;;;;;22.00;12.80;;;;;;;3.33;69.12;101034.55;232024;197;154184;-63
2024/01/29 03:13:06;;;;;;;17.20;12.20;;;;;;;3.26;69.51;101032.63;232068;198;155258;-62
2024/01/29 03:18:09;;;;;;;23.20;13.90;;;;;;;3.26;69.86;101028.22;232134;198;138515;-62
2024/01/29 03:23:13;;;;;;;18.30;12.00;;;;;;;3.30;69.86;101029.46;231825;197;153550;-63
2024/01/29 03:28:16;;;;;;;19.60;12.30;;;;;;;3.27;69.81;101025.42;232047;197;139426;-63
2024/01/29 03:33:19;;;;;;;17.30;11.70;;;;;;;3.22;69.86;101024.38;232065;202;138230;-62
2024/01/29 03:38:23;;;;;;;20.50;11.80;;;;;;;3.16;70.05;101017.35;232086;204;153999;-62
2024/01/29 03:43:26;;;;;;;19.70;11.80;;;;;;;3.16;70.39;101015.77;232042;198;138299;-63
2024/01/29 03:48:30;;;;;;;19.70;11.90;;;;;;;3.19;70.46;101015.77;232139;204;137895;-63
2024/01/29 03:53:33;;;;;;;20.70;12.90;;;;;;;3.25;70.47;101015.24;231942;205;153286;-62
2024/01/29 03:58:36;;;;;;;20.10;14.00;;;;;;;3.36;70.31;101018.92;231860;198;137511;-63
2024/01/29 04:03:39;;;;;;;21.70;13.00;;;;;;;3.50;70.09;101015.05;232030;198;138753;-62
2024/01/29 04:08:43;;;;;;;17.90;11.90;;;;;;;3.57;69.87;101009.25;232032;198;153331;-62
2024/01/29 04:13:46;;;;;;;15.20;10.40;;;;;;;3.67;69.72;101002.56;231867;204;138408;-63
2024/01/29 04:18:50;;;;;;;17.00;10.80;;;;;;;3.66;69.43;100998.70;232232;201;138990;-62
2024/01/29 04:23:53;;;;;;;15.60;9.80;;;;;;;3.65;69.52;100988.18;232051;202;153640;-62
2024/01/29 04:28:56;;;;;;;16.20;11.10;;;;;;;3.62;69.29;100985.20;231889;204;138360;-63
2024/01/29 04:34:00;;;;;;;13.30;9.70;;;;;;;3.59;69.17;100979.24;232039;204;138645;-63
2024/01/29 04:39:03;;;;;;;15.50;10.90;;;;;;;3.55;69.08;100977.31;231802;205;154421;-63
2024/01/29 04:44:07;;;;;;;16.60;11.30;;;;;;;3.50;69.20;100972.59;232047;200;137277;-62
2024/01/29 04:49:10;;;;;;;14.30;10.50;;;;;;;3.47;69.15;100977.34;232069;201;137546;-63
2024/01/29 04:54:15;;;;;;;16.60;10.50;;;;;;;3.41;69.11;100973.14;232016;204;153090;-63
2024/01/29 04:59:19;;;;;;;16.00;11.00;;;;;;;3.29;69.04;100979.13;231888;197;142499;-65
2024/01/29 05:04:22;;;;;;;17.30;10.90;;;;;;;3.19;69.25;100981.05;231928;197;138805;-62
2024/01/29 05:09:25;;;;;;;16.00;10.60;;;;;;;3.13;69.24;100980.89;231728;204;154514;-62
2024/01/29 05:14:28;;;;;;;17.20;10.40;;;;;;;3.11;69.36;100987.19;231890;198;139645;-63
2024/01/29 05:19:32;;;;;;;15.90;10.90;;;;;;;3.19;68.97;100990.35;232043;197;138563;-62
2024/01/29 05:24:35;;;;;;;18.20;11.60;;;;;;;3.16;68.93;100985.61;232143;204;153491;-62
2024/01/29 05:29:38;;;;;;;18.70;12.50;;;;;;;3.13;68.84;100987.73;231946;204;138486;-62
2024/01/29 05:34:41;;;;;;;19.90;13.00;;;;;;;3.11;68.78;100987.02;231892;200;138619;-63
2024/01/29 05:39:45;;;;;;;20.00;14.50;;;;;;;3.09;68.92;100984.21;231945;197;153023;-63
2024/01/29 05:44:48;;;;;;;18.10;12.70;;;;;;;3.08;68.98;100978.42;231989;200;137758;-64
2024/01/29 05:49:51;;;;;;;20.10;13.10;;;;;;;3.06;69.00;100978.42;232130;204;139237;-59
2024/01/29 05:54:54;;;;;;;228.50;167.30;;;;;;;3.08;69.63;100980.88;231966;204;153365;-59
2024/01/29 05:59:59;;;;;;;35.90;23.80;;;;;;;3.07;69.29;100990.52;232061;197;141128;-60
2024/01/29 06:05:03;;;;;;;35.70;25.40;;;;;;;2.99;69.36;101003.85;231883;198;138429;-60
2024/01/29 06:10:09;;;;;;;23.40;16.70;;;;;;;2.91;69.50;101015.06;231717;198;153155;-60
2024/01/29 06:15:12;;;;;;;16.00;11.40;;;;;;;2.89;69.50;101016.81;231829;201;138056;-60
2024/01/29 06:20:15;;;;;;;16.10;11.20;;;;;;;2.92;70.42;101016.98;232083;204;141678;-60
2024/01/29 06:25:21;;;;;;;14.80;10.50;;;;;;;2.97;69.26;101012.44;232049;204;153455;-59
2024/01/29 06:30:24;;;;;;;15.50;10.30;;;;;;;2.96;69.18;101013.48;232106;204;139023;-60
2024/01/29 06:35:28;;;;;;;16.40;11.20;;;;;;;2.94;68.95;101015.06;231786;204;139022;-59
2024/01/29 06:40:31;;;;;;;35.20;23.20;;;;;;;2.91;69.53;101020.67;231959;202;153996;-59
2024/01/29 06:45:35;;;;;;;15.10;10.40;;;;;;;3.01;69.57;101026.30;231961;198;139197;-59
2024/01/29 06:50:40;;;;;;;16.90;11.40;;;;;;;2.93;69.08;101021.03;231921;204;141364;-59
2024/01/29 06:55:43;;;;;;;13.60;10.70;;;;;;;2.85;69.31;101018.04;231976;200;153138;-59
2024/01/29 07:00:46;;;;;;;17.30;11.70;;;;;;;2.84;69.31;101016.98;232129;199;138784;-59
2024/01/29 07:05:49;;;;;;;15.90;11.10;;;;;;;2.77;69.42;101012.95;231733;202;138752;-59
2024/01/29 07:10:52;;;;;;;16.60;10.80;;;;;;;2.78;69.59;101013.47;231948;202;154354;-59
2024/01/29 07:15:55;;;;;;;18.60;11.90;;;;;;;2.79;69.89;101016.63;231946;198;138379;-59
2024/01/29 07:20:59;;;;;;;23.50;12.50;;;;;;;2.84;70.11;101012.08;231940;198;137455;-58
2024/01/29 07:26:03;;;;;;;16.50;11.50;;;;;;;2.89;70.16;101015.94;231832;204;153442;-59
2024/01/29 07:31:06;;;;;;;17.50;11.40;;;;;;;2.92;70.24;101014.19;231558;204;138727;-59
2024/01/29 07:36:09;;;;;;;14.60;10.10;;;;;;;2.98;70.21;101014.90;232109;202;137988;-59
2024/01/29 07:41:12;;;;;;;57.30;33.70;;;;;;;3.08;70.76;101015.42;231896;197;154084;-60
2024/01/29 07:46:16;;;;;;;21.70;12.80;;;;;;;3.29;71.02;101017.53;231904;199;138275;-59
2024/01/29 07:51:19;;;;;;;21.30;13.10;;;;;;;3.38;70.30;101015.23;231932;199;137679;-60
2024/01/29 07:56:22;;;;;;;21.20;12.60;;;;;;;3.40;70.12;101007.53;231918;198;152983;-59
2024/01/29 08:01:25;;;;;;;25.10;13.90;;;;;;;3.45;70.18;100991.20;231958;204;138663;-60
2024/01/29 08:06:30;;;;;;;24.00;13.80;;;;;;;3.51;70.16;100991.73;232026;204;137822;-59
2024/01/29 08:11:34;;;;;;;22.60;13.70;;;;;;;3.57;70.13;100989.61;232007;204;153177;-60
2024/01/29 08:16:38;;;;;;;22.00;14.40;;;;;;;3.62;69.96;100979.42;231986;204;138400;-59
2024/01/29 08:21:41;;;;;;;20.10;13.70;;;;;;;3.71;70.07;100985.89;231894;202;138509;-59
2024/01/29 08:26:44;;;;;;;24.40;13.90;;;;;;;3.81;70.09;100983.57;231960;202;154317;-59
2024/01/29 08:31:48;;;;;;;19.10;12.90;;;;;;;3.94;69.72;100998.45;231987;201;138282;-60
2024/01/29 08:36:51;;;;;;;23.60;14.60;;;;;;;4.08;69.31;100996.11;232039;204;138166;-59
2024/01/29 08:41:54;;;;;;;23.70;13.10;;;;;;;4.21;69.07;100999.23;231899;197;155594;-60
2024/01/29 08:46:58;;;;;;;20.10;12.80;;;;;;;4.36;68.03;101001.79;231893;197;137935;-59
2024/01/29 08:52:01;;;;;;;20.00;13.50;;;;;;;4.51;67.17;101013.32;231716;197;138218;-60
2024/01/29 08:57:05;;;;;;;23.90;13.00;;;;;;;4.63;66.41;101018.17;231663;197;153089;-60
2024/01/29 09:02:08;;;;;;;21.10;14.20;;;;;;;4.73;65.86;101020.92;231891;198;138399;-60
2024/01/29 09:07:12;;;;;;;23.90;13.70;;;;;;;4.84;65.30;101020.50;231911;197;138330;-60
2024/01/29 09:12:15;;;;;;;19.70;13.20;;;;;;;5.01;65.43;101019.84;231884;203;153388;-60
2024/01/29 09:17:18;;;;;;;23.80;14.10;;;;;;;5.17;65.34;101022.19;231818;204;138681;-61
2024/01/29 09:22:21;;;;;;;320.10;204.60;;;;;;;5.42;67.40;101027.08;231882;198;138519;-56
2024/01/29 09:27:25;;;;;;;25.60;15.20;;;;;;;5.70;66.47;101017.84;231867;202;153933;-61
2024/01/29 09:32:28;;;;;;;27.80;14.40;;;;;;;5.84;65.31;101010.83;231900;197;138736;-61
2024/01/29 09:37:31;;;;;;;29.70;15.60;;;;;;;6.00;64.70;101009.80;231962;204;138689;-61
2024/01/29 09:42:36;;;;;;;23.40;14.30;;;;;;;6.10;63.99;101009.50;232064;202;153257;-60
2024/01/29 09:47:40;;;;;;;22.90;13.30;;;;;;;6.22;63.62;101014.45;231876;204;138240;-60
2024/01/29 09:52:45;;;;;;;45.60;29.90;;;;;;;6.40;63.51;101017.23;231885;204;137346;-63
2024/01/29 09:57:48;;;;;;;20.90;13.80;;;;;;;6.57;62.57;101008.20;231733;198;153340;-60
2024/01/29 10:02:53;;;;;;;20.40;13.70;;;;;;;6.71;61.99;101003.94;231744;197;138547;-60
2024/01/29 10:07:58;;;;;;;22.10;14.80;;;;;;;6.91;61.80;101000.27;231849;198;138860;-61
2024/01/29 10:13:06;;;;;;;18.20;10.80;;;;;;;7.15;60.79;100996.37;231992;198;153587;-60
2024/01/29 10:18:11;;;;;;;17.60;9.90;;;;;;;7.36;59.27;100990.54;232064;202;138157;-60
2024/01/29 10:23:15;;;;;;;16.30;10.40;;;;;;;7.50;58.48;100986.59;231969;197;137144;-60
2024/01/29 10:28:18;;;;;;;14.00;10.20;;;;;;;7.63;58.05;100985.63;231962;198;154172;-60
2024/01/29 10:33:22;;;;;;;16.60;10.90;;;;;;;7.80;58.13;100978.61;231920;204;138635;-59
2024/01/29 10:38:26;;;;;;;17.40;11.20;;;;;;;8.00;58.06;100978.55;231851;202;138849;-59
2024/01/29 10:43:37;;;;;;;20.00;12.50;;;;;;;8.24;57.34;100966.56;231747;199;154149;-58
2024/01/29 10:48:42;;;;;;;17.40;12.30;;;;;;;8.48;56.70;100957.23;232070;204;138232;-60
2024/01/29 10:53:48;;;;;;;24.10;14.20;;;;;;;8.68;56.03;100956.05;231936;202;138613;-60
2024/01/29 10:58:57;;;;;;;24.20;14.30;;;;;;;8.90;55.71;100947.93;231831;202;153352;-60
2024/01/29 11:04:07;;;;;;;23.50;15.10;;;;;;;9.16;54.92;100941.08;231863;204;138588;-60
2024/01/29 11:09:14;;;;;;;25.10;16.80;;;;;;;9.34;54.64;100932.83;231727;204;138795;-60
2024/01/29 11:14:21;;;;;;;23.70;14.50;;;;;;;9.55;54.61;100931.73;231772;199;153050;-60
2024/01/29 11:19:26;;;;;;;21.80;14.60;;;;;;;9.80;53.72;100932.64;231911;204;138753;-61
2024/01/29 11:24:31;;;;;;;24.20;15.20;;;;;;;9.91;54.03;100931.61;231994;198;137528;-60
2024/01/29 11:29:37;;;;;;;23.70;14.80;;;;;;;10.03;53.23;100929.14;231962;200;154835;-60
2024/01/29 11:34:40;;;;;;;25.60;16.00;;;;;;;10.05;53.17;100923.20;231682;198;138154;-59
2024/01/29 11:39:44;;;;;;;23.10;15.60;;;;;;;10.03;53.58;100918.83;231969;202;138404;-61
2024/01/29 11:44:50;;;;;;;19.20;13.50;;;;;;;10.23;53.52;100909.37;231888;201;153639;-60
2024/01/29 11:49:53;;;;;;;20.00;13.00;;;;;;;10.44;53.10;100907.14;231923;200;138909;-60
2024/01/29 11:54:56;;;;;;;19.80;12.80;;;;;;;10.65;52.75;100910.91;231964;202;139913;-61
2024/01/29 12:00:00;;;;;;;19.70;13.10;;;;;;;10.86;52.57;100913.42;232134;198;153341;-60
2024/01/29 12:05:06;;;;;;;20.90;13.20;;;;;;;11.09;52.29;100913.55;231736;202;155359;-61
2024/01/29 12:10:10;;;;;;;24.30;14.20;;;;;;;11.34;52.00;100909.33;231767;201;138971;-62
2024/01/29 12:15:13;;;;;;;24.90;14.50;;;;;;;11.65;51.95;100908.75;231811;204;153273;-62
2024/01/29 12:20:17;;;;;;;23.40;14.10;;;;;;;11.82;51.79;100906.34;231894;201;139045;-62
2024/01/29 12:25:20;;;;;;;21.00;13.80;;;;;;;11.93;51.87;100902.90;231966;198;138288;-61
2024/01/29 12:30:23;;;;;;;22.90;14.60;;;;;;;12.02;51.77;100908.81;231927;198;153938;-62
2024/01/29 12:35:31;;;;;;;19.60;13.90;;;;;;;12.02;51.57;100905.59;231756;204;139002;-62
2024/01/29 12:40:36;;;;;;;18.70;13.10;;;;;;;11.98;51.44;100900.61;231887;198;139924;-62
2024/01/29 12:45:41;;;;;;;18.00;13.10;;;;;;;11.94;51.15;100897.90;231627;197;153117;-62
2024/01/29 12:50:45;;;;;;;21.10;13.50;;;;;;;11.87;51.29;100893.38;231876;200;139612;-62
2024/01/29 12:55:48;;;;;;;23.80;12.50;;;;;;;11.79;51.16;100896.83;231982;204;139277;-60
2024/01/29 13:00:52;;;;;;;18.30;12.70;;;;;;;11.69;51.38;100898.27;231884;197;154631;-61
2024/01/29 13:05:57;;;;;;;22.20;12.70;;;;;;;11.54;51.72;100900.40;231715;197;269435;-62
2024/01/29 13:11:02;;;;;;;15.90;11.80;;;;;;;11.39;52.09;100898.98;231750;201;138662;-61
2024/01/29 13:16:06;;;;;;;18.10;11.90;;;;;;;11.17;52.13;100900.82;231911;201;153202;-62
2024/01/29 13:21:09;;;;;;;18.30;11.90;;;;;;;10.97;52.26;100898.51;231964;198;138266;-62
2024/01/29 13:26:13;;;;;;;15.80;10.90;;;;;;;10.78;52.83;100893.97;231970;204;139449;-62
2024/01/29 13:31:18;;;;;;;14.70;10.50;;;;;;;10.64;53.11;100898.89;231884;204;153286;-62
2024/01/29 13:36:21;;;;;;;16.30;10.40;;;;;;;10.51;53.49;100893.61;232036;198;138632;-61
2024/01/29 13:41:24;;;;;;;17.00;11.00;;;;;;;10.46;53.73;100893.98;231799;198;138957;-62
2024/01/29 13:46:27;;;;;;;15.90;10.60;;;;;;;10.48;53.68;100889.83;231510;197;154045;-62
2024/01/29 13:51:31;;;;;;;18.00;10.80;;;;;;;10.49;53.79;100887.64;231641;197;138375;-61
2024/01/29 13:56:34;;;;;;;16.00;11.00;;;;;;;10.49;53.88;100878.96;231850;198;139284;-60
2024/01/29 14:01:38;;;;;;;14.20;10.00;;;;;;;10.51;53.85;100877.13;231740;204;153800;-61
2024/01/29 14:06:43;;;;;;;16.30;11.10;;;;;;;10.53;53.75;100879.17;231897;202;137687;-61
2024/01/29 14:11:46;;;;;;;16.10;11.10;;;;;;;10.43;53.72;100879.67;231549;198;138463;-61
2024/01/29 14:16:49;;;;;;;14.70;10.60;;;;;;;10.26;54.00;100879.84;231761;198;153150;-61
2024/01/29 14:21:53;;;;;;;17.30;10.90;;;;;;;10.06;54.43;100879.73;231910;197;141184;-61
2024/01/29 14:26:57;;;;;;;18.40;11.20;;;;;;;9.90;54.86;100883.59;231893;205;138726;-60
2024/01/29 14:32:00;;;;;;;17.40;11.10;;;;;;;9.77;54.93;100881.13;231895;197;153252;-61
2024/01/29 14:37:03;;;;;;;20.00;11.20;;;;;;;9.65;55.09;100874.90;231854;202;138861;-61
2024/01/29 14:42:07;;;;;;;16.60;11.40;;;;;;;9.52;55.61;100875.98;231927;204;138454;-61
2024/01/29 14:47:10;;;;;;;18.50;11.60;;;;;;;9.40;56.10;100880.21;231796;204;155013;-61
2024/01/29 14:52:17;;;;;;;16.80;11.00;;;;;;;9.29;56.41;100872.39;231673;197;138025;-62
2024/01/29 14:57:21;;;;;;;16.50;11.60;;;;;;;9.16;56.61;100868.83;231805;204;137947;-62
2024/01/29 15:02:24;;;;;;;19.10;12.00;;;;;;;9.02;56.96;100874.34;231714;198;153165;-61
2024/01/29 15:07:27;;;;;;;19.10;12.20;;;;;;;8.90;57.43;100870.58;231782;197;138839;-62
2024/01/29 15:12:30;;;;;;;17.70;11.30;;;;;;;8.78;57.93;100875.30;231962;204;138838;-62
2024/01/29 15:17:34;;;;;;;17.90;12.00;;;;;;;8.68;58.19;100873.09;231898;197;153381;-61
2024/01/29 15:22:37;;;;;;;16.40;11.50;;;;;;;8.58;58.22;100877.03;231891;202;137457;-61
2024/01/29 15:27:41;;;;;;;18.40;12.00;;;;;;;8.47;58.45;100875.86;231848;200;137296;-61
2024/01/29 15:32:45;;;;;;;18.20;11.80;;;;;;;8.35;58.82;100873.14;231644;202;154660;-61
2024/01/29 15:37:48;;;;;;;17.60;11.20;;;;;;;8.25;58.90;100868.23;231926;198;137400;-60
2024/01/29 15:42:53;;;;;;;19.00;11.80;;;;;;;8.09;59.26;100866.14;232016;204;138586;-61
2024/01/29 15:47:57;;;;;;;17.60;12.00;;;;;;;7.92;59.59;100869.67;231856;204;153888;-61
2024/01/29 15:53:01;;;;;;;16.00;11.30;;;;;;;7.81;59.57;100866.20;231819;197;138200;-60
2024/01/29 15:58:04;;;;;;;20.70;12.90;;;;;;;7.66;59.97;100872.00;231676;197;143373;-61
2024/01/29 16:03:11;;;;;;;17.70;11.50;;;;;;;7.49;60.28;100874.80;231757;198;153425;-61
2024/01/29 16:08:16;;;;;;;20.80;13.00;;;;;;;7.33;60.63;100870.35;231918;204;138174;-61
2024/01/29 16:13:19;;;;;;;23.30;13.70;;;;;;;7.22;60.99;100865.80;232013;202;140505;-61
2024/01/29 16:18:25;;;;;;;19.80;12.50;;;;;;;7.10;61.41;100866.56;232035;202;153911;-60
2024/01/29 16:23:28;;;;;;;22.60;13.70;;;;;;;7.01;62.01;100877.46;231909;202;138123;-61
2024/01/29 16:28:31;;;;;;;26.50;13.70;;;;;;;6.95;62.45;100877.59;231955;201;138235;-61
2024/01/29 16:33:34;;;;;;;23.20;13.60;;;;;;;6.89;62.59;100882.27;231824;198;153299;-61
2024/01/29 16:38:38;;;;;;;24.10;13.60;;;;;;;6.77;62.80;100886.71;231927;198;138292;-60
2024/01/29 16:43:41;;;;;;;24.00;13.50;;;;;;;6.71;62.99;100887.52;231924;198;138392;-61
2024/01/29 16:48:44;;;;;;;22.70;13.40;;;;;;;6.63;63.07;100888.00;231977;199;153508;-61
2024/01/29 16:53:48;;;;;;;25.10;15.10;;;;;;;6.55;63.10;100887.77;231839;204;138386;-61
2024/01/29 16:58:53;;;;;;;23.30;14.00;;;;;;;6.43;63.30;100888.48;231723;199;138145;-61
2024/01/29 17:03:56;;;;;;;22.70;14.20;;;;;;;6.26;63.64;100895.80;231658;198;153868;-60
2024/01/29 17:09:00;;;;;;;21.70;13.30;;;;;;;6.17;63.65;100893.79;231865;201;137973;-61
2024/01/29 17:14:03;;;;;;;24.90;13.80;;;;;;;6.09;63.90;100898.85;231918;200;138219;-61
2024/01/29 17:19:08;;;;;;;25.20;14.60;;;;;;;6.03;64.08;100904.41;231902;200;154032;-61
2024/01/29 17:24:11;;;;;;;19.90;13.20;;;;;;;5.98;64.08;100902.52;232013;197;138840;-60
2024/01/29 17:29:15;;;;;;;24.10;14.20;;;;;;;5.84;64.03;100894.41;231762;202;141162;-61
2024/01/29 17:34:18;;;;;;;27.30;14.40;;;;;;;5.72;64.28;100898.05;231877;197;153191;-60
2024/01/29 17:39:21;;;;;;;26.90;15.80;;;;;;;5.62;64.33;100899.42;231835;202;139057;-61
2024/01/29 17:44:24;;;;;;;26.10;14.90;;;;;;;5.52;64.40;100899.73;232026;198;139067;-62
2024/01/29 17:49:28;;;;;;;30.80;16.40;;;;;;;5.40;64.61;100903.19;232024;201;153863;-60
2024/01/29 17:54:32;;;;;;;27.50;17.30;;;;;;;5.32;64.89;100904.68;232024;201;137968;-62
2024/01/29 17:59:37;;;;;;;31.30;17.90;;;;;;;5.22;64.83;100903.38;231942;197;139487;-60
2024/01/29 18:04:40;;;;;;;;;;;;;;;5.15;64.87;100907.31;231976;198;153804;-60
2024/01/29 18:09:46;;;;;;;33.60;18.40;;;;;;;5.06;65.03;100911.80;231705;198;138224;-60
2024/01/29 18:14:50;;;;;;;30.80;19.40;;;;;;;4.96;65.15;100909.77;231895;204;138468;-59
2024/01/29 18:19:57;;;;;;;34.90;19.70;;;;;;;4.88;65.20;100915.47;231936;201;154686;-59
2024/01/29 18:25:01;;;;;;;31.60;19.50;;;;;;;4.82;65.26;100914.48;231887;201;138209;-58
2024/01/29 18:30:06;;;;;;;32.70;19.80;;;;;;;4.76;65.28;100912.07;231877;202;138071;-57
2024/01/29 18:35:10;;;;;;;30.60;20.20;;;;;;;4.69;65.37;100913.88;231868;197;153033;-58
2024/01/29 18:40:14;;;;;;;30.00;19.80;;;;;;;4.59;65.43;100909.36;231770;198;139205;-62
2024/01/29 18:45:17;;;;;;;32.10;19.70;;;;;;;4.53;65.57;100909.42;231894;197;138274;-56
2024/01/29 18:50:21;;;;;;;34.70;21.40;;;;;;;4.47;65.55;100905.59;232002;204;153946;-61
2024/01/29 18:55:25;;;;;;;31.70;20.70;;;;;;;4.42;65.63;100903.52;231985;201;138025;-61
2024/01/29 19:00:28;;;;;;;35.30;21.90;;;;;;;4.36;65.78;100914.10;232022;201;139319;-61
2024/01/29 19:05:31;;;;;;;33.80;20.70;;;;;;;4.29;65.95;100913.10;231946;197;152365;-60
2024/01/29 19:10:37;;;;;;;36.60;19.60;;;;;;;4.24;66.06;100912.06;231902;197;141415;-61
2024/01/29 19:15:45;;;;;;;32.00;20.30;;;;;;;4.29;65.97;100912.04;231916;204;137479;-58
2024/01/29 19:20:49;;;;;;;36.50;23.40;;;;;;;4.27;65.62;100912.93;231924;201;153172;-58
2024/01/29 19:25:53;;;;;;;188.30;127.40;;;;;;;4.23;66.46;100921.56;231914;204;139047;-60
2024/01/29 19:30:57;;;;;;;39.50;23.40;;;;;;;4.38;66.59;100927.27;231999;204;138411;-60
2024/01/29 19:36:01;;;;;;;38.70;23.40;;;;;;;4.33;65.79;100923.79;231807;197;291184;-61
2024/01/29 19:41:06;;;;;;;35.70;23.00;;;;;;;4.24;65.74;100925.77;231783;202;140977;-60
2024/01/29 19:46:09;;;;;;;34.60;22.60;;;;;;;4.13;65.78;100928.48;231602;198;138476;-59
2024/01/29 19:51:19;;;;;;;42.80;25.60;;;;;;;4.05;65.87;100934.84;231703;197;155367;-60
2024/01/29 19:56:22;;;;;;;41.60;25.20;;;;;;;3.92;66.14;100938.94;231574;203;138478;-59
2024/01/29 20:01:26;;;;;;;46.60;27.80;;;;;;;3.88;66.36;100936.66;231655;204;137740;-59
2024/01/29 20:06:29;;;;;;;45.20;27.00;;;;;;;3.84;66.51;100938.96;231994;202;154745;-59
2024/01/29 20:11:33;;;;;;;293.80;184.60;;;;;;;3.85;67.21;100934.40;231819;204;138482;-60
2024/01/29 20:16:36;;;;;;;40.80;25.10;;;;;;;4.06;67.54;100930.80;231768;197;139134;-59
2024/01/29 20:21:40;;;;;;;41.90;26.00;;;;;;;3.97;66.44;100927.31;231860;204;153403;-61
2024/01/29 20:26:44;;;;;;;46.30;27.60;;;;;;;3.91;66.29;100925.77;231805;204;139101;-61
2024/01/29 20:31:47;;;;;;;46.80;28.60;;;;;;;3.82;66.38;100921.95;231982;201;138905;-61
2024/01/29 20:36:51;;;;;;;45.40;26.00;;;;;;;3.75;66.44;100926.36;231905;204;153851;-61
2024/01/29 20:41:54;;;;;;;69.30;42.90;;;;;;;3.73;68.08;100926.37;231790;201;138384;-62
2024/01/29 20:46:58;;;;;;;46.50;27.10;;;;;;;3.81;67.19;100926.86;231821;198;138338;-61
2024/01/29 20:52:01;;;;;;;43.90;26.20;;;;;;;3.76;67.58;100923.02;231772;197;155712;-61
2024/01/29 20:57:05;;;;;;;44.80;25.90;;;;;;;3.78;66.92;100921.25;231764;204;142617;-61
2024/01/29 21:02:10;;;;;;;45.80;28.10;;;;;;;3.69;66.52;100924.09;231817;197;139476;-61
2024/01/29 21:07:13;;;;;;;33.40;19.60;;;;;;;3.57;66.52;100922.73;231905;204;153247;-61
2024/01/29 21:12:17;;;;;;;43.70;27.50;;;;;;;3.46;66.66;100917.67;231838;204;138565;-61
2024/01/29 21:17:21;;;;;;;45.50;27.20;;;;;;;3.33;66.92;100914.04;231868;202;138911;-61
2024/01/29 21:22:24;;;;;;;43.40;26.60;;;;;;;3.32;67.26;100918.95;231829;198;155116;-62
2024/01/29 21:27:27;;;;;;;45.20;27.20;;;;;;;3.30;66.92;100916.86;231821;204;138329;-60
2024/01/29 21:32:31;;;;;;;52.20;31.90;;;;;;;3.28;67.98;100921.77;231953;202;142085;-61
2024/01/29 21:37:34;;;;;;;46.40;29.20;;;;;;;3.34;67.56;100923.51;231647;200;153166;-61
2024/01/29 21:42:37;;;;;;;46.50;28.20;;;;;;;3.22;67.16;100928.43;231930;201;138193;-60
2024/01/29 21:47:40;;;;;;;45.70;27.70;;;;;;;3.12;67.20;100927.05;231833;204;139206;-62
2024/01/29 21:52:44;;;;;;;42.30;26.80;;;;;;;3.05;67.39;100929.68;231778;201;153873;-61
2024/01/29 21:57:47;;;;;;;43.10;27.30;;;;;;;3.00;67.57;100927.23;231872;204;138338;-62
2024/01/29 22:02:50;;;;;;;42.00;26.10;;;;;;;2.93;67.74;100928.64;231914;204;141070;-62
2024/01/29 22:07:54;;;;;;;49.50;26.90;;;;;;;2.94;67.80;100930.22;231721;199;153356;-61
2024/01/29 22:12:57;;;;;;;48.20;29.20;;;;;;;3.01;67.61;100925.83;231913;197;138374;-61
2024/01/29 22:18:00;;;;;;;46.00;28.60;;;;;;;3.04;67.23;100917.94;231802;201;138318;-62
2024/01/29 22:23:03;;;;;;;49.70;29.20;;;;;;;3.00;67.36;100916.72;231941;198;154776;-61
2024/01/29 22:28:07;;;;;;;50.20;29.70;;;;;;;3.00;67.33;100928.27;231962;202;137894;-62
2024/01/29 22:33:10;;;;;;;48.90;30.40;;;;;;;2.94;67.36;100928.45;231997;198;138290;-62
2024/01/29 22:38:13;;;;;;;46.70;27.80;;;;;;;2.84;67.49;100922.16;231675;204;153433;-62
2024/01/29 22:43:16;;;;;;;53.40;29.90;;;;;;;2.80;67.72;100916.89;231795;201;138327;-61
2024/01/29 22:48:20;;;;;;;50.10;29.90;;;;;;;2.76;67.72;100917.59;232028;204;138087;-61
2024/01/29 22:53:23;;;;;;;43.00;27.80;;;;;;;2.65;67.78;100916.73;231754;202;153091;-61
2024/01/29 22:58:27;;;;;;;49.10;28.60;;;;;;;2.60;68.10;100916.88;231876;202;138226;-61